Time;durP1;ratioP1;P1;durP2;ratioP2;P2;SDS_P1;SDS_P2;PMS_P1;PMS_P2;Temp;Humidity;BMP_temperature;BMP_pressure;BME280_temperature;BME280_humidity;BME280_pressure;Samples;Min_cycle;Max_cycle;Signal;HPM_P1;HPM_P2
2021/07/01 00:00:15;;;;;;;8.93;6.22;;;19.60;94.00;;;;;;4986291;28;20026;-81
2021/07/01 00:02:40;;;;;;;;;;;19.60;93.90;;;;;;4982190;28;20029;-81
2021/07/01 00:05:08;;;;;;;6.75;5.70;;;19.50;93.70;;;;;;4974858;28;19906;-80
2021/07/01 00:07:34;;;;;;;6.30;5.63;;;19.50;94.10;;;;;;4981656;28;20080;-82
2021/07/01 00:10:00;;;;;;;7.18;5.70;;;19.50;94.20;;;;;;4990597;28;20106;-80
2021/07/01 00:12:26;;;;;;;6.78;5.93;;;19.50;94.10;;;;;;4985445;28;20047;-81
2021/07/01 00:14:51;;;;;;;7.15;6.22;;;19.60;94.00;;;;;;4975124;28;20071;-80
2021/07/01 00:17:17;;;;;;;12.60;6.80;;;19.60;94.00;;;;;;4980737;28;20026;-80
2021/07/01 00:19:43;;;;;;;7.38;6.25;;;19.60;94.00;;;;;;4992684;28;20440;-81
2021/07/01 00:22:09;;;;;;;6.97;5.78;;;19.60;94.00;;;;;;4992399;28;20022;-81
2021/07/01 00:24:34;;;;;;;9.80;7.30;;;19.60;94.00;;;;;;4990294;28;20023;-82
2021/07/01 00:27:00;;;;;;;8.80;5.53;;;19.50;94.00;;;;;;4992094;28;20507;-81
2021/07/01 00:29:26;;;;;;;6.47;5.80;;;19.50;94.00;;;;;;4988556;28;20097;-80
2021/07/01 00:31:52;;;;;;;7.22;5.53;;;19.60;94.00;;;;;;4977967;28;20035;-80
2021/07/01 00:34:18;;;;;;;7.57;6.25;;;19.60;94.20;;;;;;4996242;28;20030;-81
2021/07/01 00:36:44;;;;;;;7.95;6.03;;;19.60;93.90;;;;;;4996213;28;20456;-80
2021/07/01 00:39:10;;;;;;;6.07;5.47;;;19.60;93.90;;;;;;4996030;28;20015;-79
2021/07/01 00:41:35;;;;;;;7.05;5.78;;;19.50;93.90;;;;;;4995946;28;20045;-80
2021/07/01 00:44:02;;;;;;;10.90;5.72;;;19.50;94.10;;;;;;4995789;28;20023;-81
2021/07/01 00:46:31;;;;;;;9.43;5.38;;;19.50;94.20;;;;;;4994787;28;20025;-79
2021/07/01 00:48:57;;;;;;;10.10;5.43;;;19.50;94.30;;;;;;4996064;28;20038;-80
2021/07/01 00:51:23;;;;;;;4.80;4.40;;;19.50;94.40;;;;;;4994758;28;20022;-80
2021/07/01 00:53:48;;;;;;;5.88;5.28;;;19.40;94.50;;;;;;4995942;28;20088;-80
2021/07/01 00:56:15;;;;;;;7.13;5.10;;;19.40;94.70;;;;;;4996288;28;20120;-80
2021/07/01 00:58:41;;;;;;;7.85;5.57;;;19.30;95.10;;;;;;4996097;28;20439;-79
2021/07/01 01:01:07;;;;;;;6.03;5.20;;;19.20;95.40;;;;;;4995940;28;20019;-80
2021/07/01 01:03:36;;;;;;;7.53;5.70;;;19.10;95.70;;;;;;4996090;28;20467;-80
2021/07/01 01:06:06;;;;;;;6.93;5.55;;;19.10;96.10;;;;;;4995888;28;20033;-80
2021/07/01 01:08:33;;;;;;;5.93;5.32;;;19.10;96.30;;;;;;4995585;28;20081;-79
2021/07/01 01:10:58;;;;;;;8.05;5.95;;;19.10;96.20;;;;;;4995764;28;20396;-81
2021/07/01 01:13:25;;;;;;;6.20;5.40;;;19.10;96.00;;;;;;4995782;28;20030;-81
2021/07/01 01:15:59;;;;;;;7.05;5.60;;;19.20;96.10;;;;;;5007411;28;20024;-81
2021/07/01 01:18:26;;;;;;;6.32;5.13;;;19.30;96.00;;;;;;4993229;28;20056;-82
2021/07/01 01:20:53;;;;;;;10.77;5.67;;;19.30;95.90;;;;;;4995664;28;20085;-81
2021/07/01 01:23:20;;;;;;;6.38;5.03;;;19.30;95.70;;;;;;5002104;28;20117;-80
2021/07/01 01:25:50;;;;;;;7.18;5.65;;;19.40;95.50;;;;;;4995649;28;20376;-80
2021/07/01 01:28:17;;;;;;;6.00;5.43;;;19.40;95.50;;;;;;4995419;28;20089;-81
2021/07/01 01:30:45;;;;;;;6.88;4.55;;;19.40;95.30;;;;;;4995461;28;20029;-80
2021/07/01 01:33:11;;;;;;;7.30;5.43;;;19.40;95.50;;;;;;5001985;28;20034;-80
2021/07/01 01:35:38;;;;;;;5.88;5.25;;;19.30;95.30;;;;;;4995059;28;20360;-81
2021/07/01 01:38:08;;;;;;;6.32;5.72;;;19.30;95.40;;;;;;4995344;28;20033;-80
2021/07/01 01:40:34;;;;;;;7.22;5.30;;;19.30;95.60;;;;;;4994077;28;20033;-80
2021/07/01 01:43:00;;;;;;;9.07;4.57;;;19.30;95.70;;;;;;4995473;28;20026;-80
2021/07/01 01:45:26;;;;;;;5.90;4.90;;;19.40;95.60;;;;;;4995336;28;20026;-80
2021/07/01 01:47:52;;;;;;;6.40;4.75;;;19.40;95.50;;;;;;4993760;28;20511;-79
2021/07/01 01:50:19;;;;;;;5.63;4.85;;;19.40;95.30;;;;;;5000910;28;20356;-79
2021/07/01 01:52:47;;;;;;;5.07;4.57;;;19.50;95.30;;;;;;4995131;28;20014;-80
2021/07/01 01:55:13;;;;;;;5.68;5.00;;;19.40;95.10;;;;;;4994914;28;20104;-81
2021/07/01 01:57:44;;;;;;;5.20;4.70;;;19.40;95.10;;;;;;4994825;28;20022;-80
2021/07/01 02:00:12;;;;;;;8.10;4.90;;;19.40;95.10;;;;;;4995309;28;20023;-81
2021/07/01 02:02:39;;;;;;;6.00;4.38;;;19.40;95.30;;;;;;4995302;28;20416;-79
2021/07/01 02:05:06;;;;;;;5.60;4.63;;;19.50;95.30;;;;;;4995228;28;20025;-79
2021/07/01 02:07:33;;;;;;;6.00;4.50;;;19.50;95.20;;;;;;4996765;28;20042;-80
2021/07/01 02:09:59;;;;;;;7.50;4.43;;;19.60;95.00;;;;;;4991359;28;20033;-80
2021/07/01 02:12:25;;;;;;;5.03;4.20;;;19.60;94.90;;;;;;4984769;28;20054;-80
2021/07/01 02:14:51;;;;;;;4.47;3.55;;;19.60;94.90;;;;;;4994431;28;20019;-79
2021/07/01 02:17:17;;;;;;;4.85;3.75;;;19.60;94.80;;;;;;4994725;28;20026;-78
2021/07/01 02:19:43;;;;;;;5.45;4.32;;;19.60;94.70;;;;;;4994631;28;20365;-79
2021/07/01 02:22:09;;;;;;;4.00;3.55;;;19.60;94.70;;;;;;4995073;28;20033;-79
2021/07/01 02:24:35;;;;;;;7.60;4.18;;;19.70;94.70;;;;;;4994906;28;20026;-80
2021/07/01 02:27:00;;;;;;;5.68;3.63;;;19.70;94.60;;;;;;4994425;28;20069;-80
2021/07/01 02:29:28;;;;;;;5.05;3.67;;;19.70;94.50;;;;;;4994387;28;20468;-81
2021/07/01 02:31:54;;;;;;;5.00;3.65;;;19.70;94.50;;;;;;4994212;28;20023;-81
2021/07/01 02:34:20;;;;;;;4.82;3.85;;;19.70;94.60;;;;;;4994387;28;20033;-82
2021/07/01 02:36:45;;;;;;;5.65;3.83;;;19.70;94.50;;;;;;4993868;28;20558;-80
2021/07/01 02:39:11;;;;;;;5.15;4.20;;;19.80;94.50;;;;;;4994184;28;20138;-81
2021/07/01 02:41:37;;;;;;;5.05;4.10;;;19.80;94.40;;;;;;4994401;28;20061;-80
2021/07/01 02:44:04;;;;;;;3.92;3.47;;;19.80;94.60;;;;;;4993852;28;20120;-80
2021/07/01 02:46:30;;;;;;;7.15;3.50;;;19.80;94.30;;;;;;4991737;28;20420;-81
2021/07/01 02:48:56;;;;;;;4.60;3.50;;;19.90;94.20;;;;;;4997645;28;20042;-80
2021/07/01 02:51:22;;;;;;;4.97;3.45;;;20.00;94.10;;;;;;4993777;28;20022;-81
2021/07/01 02:53:48;;;;;;;6.60;3.22;;;20.00;94.10;;;;;;4993755;28;20110;-81
2021/07/01 02:56:14;;;;;;;5.10;3.50;;;20.00;94.00;;;;;;4993889;28;20054;-81
2021/07/01 02:58:40;;;;;;;4.82;3.47;;;20.10;93.90;;;;;;4994025;28;20027;-80
2021/07/01 03:01:06;;;;;;;5.55;3.22;;;20.10;93.90;;;;;;4993253;28;20105;-81
2021/07/01 03:03:31;;;;;;;3.75;3.15;;;20.20;93.80;;;;;;4993909;28;20026;-81
2021/07/01 03:05:57;;;;;;;6.20;3.10;;;20.30;93.80;;;;;;4993951;28;20092;-80
2021/07/01 03:08:23;;;;;;;6.63;3.50;;;20.40;93.50;;;;;;4993301;28;20040;-80
2021/07/01 03:10:49;;;;;;;4.00;2.92;;;20.50;93.20;;;;;;4993420;28;20030;-80
2021/07/01 03:13:15;;;;;;;7.57;3.25;;;20.60;92.80;;;;;;4993200;28;20397;-80
2021/07/01 03:15:41;;;;;;;5.25;2.88;;;20.70;92.70;;;;;;4988831;28;20041;-78
2021/07/01 03:18:07;;;;;;;4.47;2.92;;;20.70;92.60;;;;;;4988623;28;20384;-81
2021/07/01 03:20:32;;;;;;;6.65;3.17;;;20.70;92.50;;;;;;4993333;28;20796;-79
2021/07/01 03:22:58;;;;;;;4.28;2.55;;;20.90;92.20;;;;;;4993262;28;20031;-80
2021/07/01 03:25:24;;;;;;;4.20;2.92;;;20.90;91.80;;;;;;4993240;28;20447;-81
2021/07/01 03:27:50;;;;;;;2.58;2.30;;;21.00;91.80;;;;;;4993276;28;20034;-80
2021/07/01 03:30:16;;;;;;;6.60;2.95;;;21.10;91.70;;;;;;4993237;28;20109;-80
2021/07/01 03:32:42;;;;;;;2.60;2.28;;;21.10;91.50;;;;;;4992258;28;20018;-79
2021/07/01 03:35:08;;;;;;;3.35;2.30;;;21.00;91.50;;;;;;4993140;28;20495;-80
2021/07/01 03:37:34;;;;;;;2.55;1.83;;;21.00;91.50;;;;;;4993194;28;20022;-81
2021/07/01 03:40:00;;;;;;;3.00;2.28;;;20.80;91.80;;;;;;4991928;28;20495;-81
2021/07/01 03:42:26;;;;;;;2.63;1.85;;;20.80;91.90;;;;;;4992895;28;20391;-83
2021/07/01 03:44:52;;;;;;;2.67;2.13;;;20.70;91.90;;;;;;4993155;28;20050;-81
2021/07/01 03:47:18;;;;;;;2.13;1.85;;;20.70;91.90;;;;;;4991217;28;20062;-81
2021/07/01 03:49:44;;;;;;;3.08;2.10;;;20.70;91.90;;;;;;4993085;28;20023;-80
2021/07/01 03:52:10;;;;;;;3.60;2.13;;;20.70;92.00;;;;;;4992661;28;20396;-81
2021/07/01 03:54:35;;;;;;;2.58;2.20;;;20.70;92.00;;;;;;4993096;28;20476;-80
2021/07/01 03:57:02;;;;;;;2.63;2.42;;;20.60;92.20;;;;;;4992870;28;20077;-80
2021/07/01 03:59:28;;;;;;;2.78;2.55;;;20.60;92.40;;;;;;4992528;28;20439;-81
2021/07/01 04:01:53;;;;;;;3.47;2.40;;;20.60;92.80;;;;;;4993153;28;20113;-79
2021/07/01 04:04:19;;;;;;;4.47;2.67;;;20.60;92.50;;;;;;4992630;28;20034;-80
2021/07/01 04:06:45;;;;;;;5.22;3.10;;;20.60;92.60;;;;;;4992850;28;20019;-80
2021/07/01 04:09:14;;;;;;;3.03;2.70;;;20.60;92.70;;;;;;4988318;28;20113;-81
2021/07/01 04:11:40;;;;;;;3.15;2.17;;;20.60;93.00;;;;;;4990052;28;20049;-80
2021/07/01 04:14:05;;;;;;;2.78;2.13;;;20.70;92.80;;;;;;4988238;28;20114;-79
2021/07/01 04:16:31;;;;;;;5.30;2.17;;;20.60;92.90;;;;;;4987151;28;20034;-80
2021/07/01 04:18:57;;;;;;;5.90;2.50;;;20.60;93.00;;;;;;4992349;28;20018;-80
2021/07/01 04:21:27;;;;;;;4.30;2.58;;;20.60;92.90;;;;;;4992203;28;20050;-81
2021/07/01 04:23:56;;;;;;;2.33;1.90;;;20.60;92.90;;;;;;4987686;28;20049;-81
2021/07/01 04:26:22;;;;;;;3.13;2.35;;;20.60;92.90;;;;;;4992718;28;20026;-79
2021/07/01 04:28:49;;;;;;;5.28;2.47;;;20.60;93.40;;;;;;4993820;28;20560;-81
2021/07/01 04:31:17;;;;;;;5.00;3.05;;;20.70;92.90;;;;;;4992601;28;20022;-79
2021/07/01 04:33:43;;;;;;;6.90;3.05;;;20.70;92.60;;;;;;4992848;28;20037;-82
2021/07/01 04:36:09;;;;;;;5.60;3.20;;;20.70;92.40;;;;;;4992301;28;20376;-80
2021/07/01 04:38:35;;;;;;;2.55;2.30;;;20.70;92.40;;;;;;4992397;28;20029;-80
2021/07/01 04:41:01;;;;;;;4.90;2.53;;;20.60;92.50;;;;;;4991579;28;20037;-80
2021/07/01 04:43:27;;;;;;;4.07;2.65;;;20.60;92.30;;;;;;4992250;28;20114;-80
2021/07/01 04:45:53;;;;;;;5.00;3.20;;;20.70;92.30;;;;;;4992277;28;20014;-80
2021/07/01 04:48:18;;;;;;;4.25;3.22;;;20.70;92.30;;;;;;4991066;28;20030;-81
2021/07/01 04:50:44;;;;;;;4.53;2.67;;;20.80;92.20;;;;;;4992269;28;20031;-80
2021/07/01 04:53:10;;;;;;;4.15;3.05;;;20.90;92.10;;;;;;4992269;28;20387;-79
2021/07/01 04:55:36;;;;;;;3.70;2.80;;;20.90;91.90;;;;;;4991990;28;20041;-81
2021/07/01 04:58:03;;;;;;;3.47;2.33;;;21.10;91.90;;;;;;4992719;28;20034;-82
2021/07/01 05:00:29;;;;;;;4.13;2.47;;;21.20;91.40;;;;;;4992436;28;20026;-79
2021/07/01 05:02:55;;;;;;;2.20;2.00;;;21.30;91.10;;;;;;4993908;28;20102;-81
2021/07/01 05:05:21;;;;;;;2.80;1.75;;;21.40;90.90;;;;;;4992782;28;20109;-81
2021/07/01 05:07:47;;;;;;;4.82;2.30;;;21.40;90.70;;;;;;4992202;28;20065;-80
2021/07/01 05:10:14;;;;;;;4.25;2.28;;;21.40;90.60;;;;;;4992232;28;20503;-80
2021/07/01 05:12:40;;;;;;;2.45;2.10;;;21.40;90.70;;;;;;4992069;28;20049;-81
2021/07/01 05:15:07;;;;;;;2.10;1.90;;;21.40;91.00;;;;;;4994030;28;20014;-82
2021/07/01 05:17:36;;;;;;;3.37;2.43;;;21.50;90.90;;;;;;4994374;28;20381;-81
2021/07/01 05:20:02;;;;;;;8.32;2.40;;;21.50;91.00;;;;;;4993819;28;20276;-81
2021/07/01 05:22:28;;;;;;;2.85;2.38;;;21.40;91.10;;;;;;4995332;28;20031;-80
2021/07/01 05:24:54;;;;;;;3.20;2.90;;;21.30;91.40;;;;;;4995218;28;20026;-80
2021/07/01 05:27:19;;;;;;;3.05;2.33;;;21.30;92.00;;;;;;4995258;28;20142;-81
2021/07/01 05:29:45;;;;;;;3.17;2.88;;;21.30;91.80;;;;;;4995444;28;20032;-82
2021/07/01 05:32:13;;;;;;;5.05;2.65;;;21.40;91.20;;;;;;4994837;28;20022;-81
2021/07/01 05:34:39;;;;;;;2.88;2.50;;;21.50;91.20;;;;;;4994893;28;20101;-80
2021/07/01 05:37:05;;;;;;;2.80;2.60;;;21.60;91.10;;;;;;4994863;28;20522;-80
2021/07/01 05:39:31;;;;;;;3.30;2.70;;;21.90;90.40;;;;;;4994970;28;20026;-81
2021/07/01 05:41:57;;;;;;;3.50;2.40;;;22.10;90.10;;;;;;4994977;28;20023;-81
2021/07/01 05:44:29;;;;;;;4.90;3.10;;;22.20;88.90;;;;;;4995077;28;20064;-82
2021/07/01 05:46:54;;;;;;;4.88;2.88;;;22.20;88.40;;;;;;4994879;28;20448;-81
2021/07/01 05:49:20;;;;;;;3.58;2.70;;;22.20;87.90;;;;;;4994824;28;20057;-81
2021/07/01 05:51:48;;;;;;;4.07;2.60;;;22.10;88.80;;;;;;4993654;28;20038;-81
2021/07/01 05:54:26;;;;;;;7.57;3.40;;;22.00;89.30;;;;;;4994213;28;20026;-82
2021/07/01 05:56:52;;;;;;;6.07;3.42;;;22.00;89.20;;;;;;4993486;28;20045;-80
2021/07/01 05:59:18;;;;;;;3.67;3.20;;;22.00;89.00;;;;;;4994602;28;20030;-81
2021/07/01 06:01:44;;;;;;;4.23;3.40;;;22.10;88.70;;;;;;4981017;28;20010;-81
2021/07/01 06:04:10;;;;;;;3.55;3.20;;;22.20;88.80;;;;;;4994796;28;20388;-81
2021/07/01 06:06:39;;;;;;;3.03;2.63;;;22.80;88.00;;;;;;4994315;28;20480;-81
2021/07/01 06:09:06;;;;;;;3.83;2.78;;;23.50;85.40;;;;;;4994400;28;20045;-80
2021/07/01 06:11:36;;;;;;;3.17;2.90;;;24.60;81.30;;;;;;4994283;28;20034;-82
2021/07/01 06:14:12;;;;;;;5.10;3.10;;;25.30;77.40;;;;;;4994586;28;20030;-83
2021/07/01 06:16:40;;;;;;;2.63;2.42;;;25.50;75.70;;;;;;4992850;28;20109;-82
2021/07/01 06:19:05;;;;;;;5.40;2.60;;;25.60;74.30;;;;;;4993101;28;20045;-80
2021/07/01 06:21:32;;;;;;;3.75;3.30;;;25.50;74.30;;;;;;4994433;28;20026;-79
2021/07/01 06:23:58;;;;;;;6.65;2.90;;;25.30;73.90;;;;;;4994492;28;20030;-81
2021/07/01 06:26:27;;;;;;;2.58;2.33;;;25.10;74.50;;;;;;4993825;28;20053;-80
2021/07/01 06:28:54;;;;;;;2.90;2.40;;;25.00;74.60;;;;;;4993995;28;20041;-80
2021/07/01 06:31:20;;;;;;;5.45;3.45;;;24.90;74.20;;;;;;4994158;28;20053;-79
2021/07/01 06:33:47;;;;;;;4.45;2.47;;;25.70;73.90;;;;;;4994043;28;20053;-81
2021/07/01 06:36:14;;;;;;;2.30;2.10;;;26.90;70.70;;;;;;4995098;28;20033;-80
2021/07/01 06:38:46;;;;;;;3.70;2.83;;;28.30;66.00;;;;;;4995624;28;20027;-80
2021/07/01 06:41:14;;;;;;;4.05;3.00;;;28.40;63.90;;;;;;4994040;28;20026;-81
2021/07/01 06:43:41;;;;;;;6.35;2.97;;;27.60;64.50;;;;;;4992562;28;20015;-82
2021/07/01 06:46:07;;;;;;;;;;;26.80;66.60;;;;;;4982163;28;20022;-81
2021/07/01 06:48:37;;;;;;;4.50;2.72;;;26.00;68.90;;;;;;4992940;28;19922;-81
2021/07/01 06:51:06;;;;;;;3.22;2.70;;;25.30;71.70;;;;;;4993772;28;20034;-80
2021/07/01 06:53:35;;;;;;;4.88;3.10;;;24.80;73.80;;;;;;4994419;28;20081;-82
2021/07/01 06:56:01;;;;;;;4.38;3.33;;;24.30;76.10;;;;;;4993620;28;20019;-80
2021/07/01 06:58:29;;;;;;;4.07;3.35;;;24.10;77.10;;;;;;4993509;28;20046;-80
2021/07/01 07:00:56;;;;;;;;;;;24.10;77.40;;;;;;4993871;28;20061;-82
2021/07/01 07:03:23;;;;;;;5.68;3.88;;;24.00;77.10;;;;;;4993485;28;19913;-80
2021/07/01 07:05:51;;;;;;;4.75;3.10;;;24.00;77.70;;;;;;4993997;28;20026;-80
2021/07/01 07:08:17;;;;;;;4.25;3.25;;;24.00;77.90;;;;;;4992932;28;20133;-81
2021/07/01 07:10:44;;;;;;;6.78;3.45;;;24.20;77.10;;;;;;4993614;28;20023;-80
2021/07/01 07:13:11;;;;;;;3.30;3.00;;;24.30;76.70;;;;;;4993064;28;20054;-81
2021/07/01 07:15:39;;;;;;;5.22;4.00;;;24.20;76.70;;;;;;4993193;28;20080;-82
2021/07/01 07:18:16;;;;;;;7.65;4.15;;;24.10;76.80;;;;;;4990868;28;20060;-81
2021/07/01 07:20:44;;;;;;;5.85;3.60;;;24.00;79.30;;;;;;5006487;28;20026;-81
2021/07/01 07:23:16;;;;;;;11.30;4.00;;;22.90;83.50;;;;;;4993402;28;20041;-82
2021/07/01 07:25:43;;;;;;;8.93;3.80;;;22.10;89.00;;;;;;4994081;28;20064;-85
2021/07/01 07:28:10;;;;;;;6.65;3.20;;;21.80;90.20;;;;;;4994417;28;20034;-83
2021/07/01 07:30:38;;;;;;;;;;;21.60;90.60;;;;;;4991916;28;20022;-85
2021/07/01 07:33:07;;;;;;;9.55;5.10;;;21.50;90.50;;;;;;4993743;28;19906;-80
2021/07/01 07:35:34;;;;;;;3.92;2.47;;;21.30;92.00;;;;;;4994740;28;20030;-83
2021/07/01 07:38:01;;;;;;;8.10;4.82;;;21.10;91.90;;;;;;4988152;28;20025;-83
2021/07/01 07:40:29;;;;;;;6.25;3.97;;;21.00;92.50;;;;;;4989470;28;20068;-83
2021/07/01 07:42:55;;;;;;;3.22;2.60;;;21.30;92.50;;;;;;4993755;28;20444;-83
2021/07/01 07:45:22;;;;;;;6.07;2.92;;;21.60;92.50;;;;;;4993243;28;20022;-83
2021/07/01 07:47:48;;;;;;;4.72;2.90;;;21.50;91.70;;;;;;4993534;28;20049;-82
2021/07/01 07:50:14;;;;;;;3.05;2.72;;;21.50;91.70;;;;;;4992991;28;20084;-80
2021/07/01 07:52:49;;;;;;;6.68;3.78;;;21.50;91.80;;;;;;4993991;28;20030;-83
2021/07/01 07:55:17;;;;;;;4.70;2.25;;;21.60;91.40;;;;;;4991890;28;20044;-82
2021/07/01 07:57:43;;;;;;;;;;;21.50;91.60;;;;;;4994922;28;20033;-84
2021/07/01 08:00:10;;;;;;;3.63;2.40;;;21.40;91.60;;;;;;4993855;28;19921;-80
2021/07/01 08:02:55;;;;;;;5.93;2.53;;;21.20;92.50;;;;;;4991929;28;20110;-80
2021/07/01 08:05:28;;;;;;;4.70;2.33;;;21.50;92.70;;;;;;4983288;28;20058;-80
2021/07/01 08:07:55;;;;;;;4.47;2.55;;;22.50;91.60;;;;;;4992549;28;20514;-80
2021/07/01 08:10:26;;;;;;;;;;;23.10;90.30;;;;;;4993270;28;20018;-80
2021/07/01 08:12:54;;;;;;;5.07;2.50;;;23.40;90.10;;;;;;4993173;28;19917;-79
2021/07/01 08:15:20;;;;;;;6.60;2.67;;;23.50;89.20;;;;;;4982249;28;20030;-83
2021/07/01 08:17:54;;;;;;;9.55;3.05;;;23.50;85.40;;;;;;4992670;28;20169;-88
2021/07/01 08:20:21;;;;;;;7.07;2.58;;;23.40;85.90;;;;;;4992401;28;20018;-82
2021/07/01 08:22:49;;;;;;;4.25;2.80;;;23.50;84.80;;;;;;4987262;28;20030;-80
2021/07/01 08:25:17;;;;;;;4.70;2.75;;;24.30;82.80;;;;;;4990907;28;20423;-81
2021/07/01 08:27:45;;;;;;;4.72;2.97;;;27.10;75.50;;;;;;4992689;28;20034;-81
2021/07/01 08:30:13;;;;;;;6.80;2.47;;;29.10;67.30;;;;;;4994105;28;20372;-83
2021/07/01 08:32:40;;;;;;;4.07;2.92;;;29.20;64.70;;;;;;4993034;28;20129;-80
2021/07/01 08:35:10;;;;;;;3.70;2.95;;;28.80;64.00;;;;;;4992815;28;20737;-81
2021/07/01 08:37:36;;;;;;;3.42;2.50;;;28.60;66.00;;;;;;4980783;28;20041;-80
2021/07/01 08:40:06;;;;;;;6.68;2.35;;;29.30;64.30;;;;;;4993276;28;20094;-83
2021/07/01 08:42:37;;;;;;;3.92;2.10;;;29.70;61.40;;;;;;4993621;28;20384;-81
2021/07/01 08:45:10;;;;;;;3.88;2.88;;;30.10;60.90;;;;;;4993239;28;20026;-81
2021/07/01 08:47:40;;;;;;;4.95;3.33;;;31.00;58.80;;;;;;4992143;28;20097;-81
2021/07/01 08:50:11;;;;;;;3.42;2.78;;;31.20;56.40;;;;;;4994925;28;20039;-81
2021/07/01 08:53:04;;;;;;;4.13;2.92;;;32.00;54.40;;;;;;4996289;28;20498;-82
2021/07/01 08:55:31;;;;;;;4.43;2.83;;;32.20;54.10;;;;;;4989507;28;20038;-80
2021/07/01 08:58:00;;;;;;;7.28;3.17;;;31.30;54.00;;;;;;4995568;28;20038;-83
2021/07/01 09:00:29;;;;;;;8.88;5.18;;;30.20;55.90;;;;;;4995177;28;20494;-80
2021/07/01 09:03:10;;;;;;;6.57;3.85;;;29.00;58.40;;;;;;4995936;28;20030;-80
2021/07/01 09:05:38;;;;;;;3.97;3.58;;;27.70;61.40;;;;;;4998030;28;20506;-81
2021/07/01 09:08:12;;;;;;;4.10;2.88;;;27.20;63.50;;;;;;4999998;28;20057;-83
2021/07/01 09:10:47;;;;;;;4.22;3.13;;;27.00;64.30;;;;;;4994350;28;20030;-81
2021/07/01 09:13:16;;;;;;;5.60;3.53;;;27.00;65.30;;;;;;5000575;28;20145;-80
2021/07/01 09:15:42;;;;;;;3.67;3.30;;;26.80;65.70;;;;;;4997148;28;20030;-80
2021/07/01 09:18:10;;;;;;;9.70;3.80;;;26.70;65.20;;;;;;4995785;28;20038;-81
2021/07/01 09:20:38;;;;;;;12.18;6.45;;;26.50;65.20;;;;;;4996415;28;20018;-79
2021/07/01 09:23:07;;;;;;;7.97;5.28;;;26.20;67.10;;;;;;4995999;28;20030;-80
2021/07/01 09:25:34;;;;;;;4.00;3.70;;;27.60;66.30;;;;;;4995582;28;20152;-83
2021/07/01 09:28:01;;;;;;;;;;;29.60;59.50;;;;;;4994934;28;20072;-82
2021/07/01 09:30:29;;;;;;;8.88;3.95;;;30.30;58.30;;;;;;4995549;28;19910;-82
2021/07/01 09:32:56;;;;;;;5.43;3.53;;;29.80;56.90;;;;;;4995448;28;20018;-80
2021/07/01 09:35:24;;;;;;;6.32;3.65;;;29.20;57.30;;;;;;4995010;28;20404;-81
2021/07/01 09:37:50;;;;;;;5.85;3.53;;;29.50;59.00;;;;;;4994739;28;20144;-81
2021/07/01 09:40:18;;;;;;;3.77;3.43;;;31.20;55.80;;;;;;4995285;28;20026;-81
2021/07/01 09:42:52;;;;;;;8.93;3.63;;;32.60;51.40;;;;;;4996465;28;20022;-82
2021/07/01 09:45:24;;;;;;;6.93;4.10;;;33.20;49.20;;;;;;4995480;28;20030;-84
2021/07/01 09:48:06;;;;;;;3.58;3.25;;;33.80;48.20;;;;;;4994030;28;20491;-82
2021/07/01 09:50:35;;;;;;;3.90;3.42;;;33.70;48.10;;;;;;4996250;28;20068;-82
2021/07/01 09:53:04;;;;;;;5.75;3.63;;;33.50;47.30;;;;;;4997323;28;20034;-79
2021/07/01 09:55:32;;;;;;;4.50;3.08;;;32.10;48.40;;;;;;5003650;28;20027;-84
2021/07/01 09:58:09;;;;;;;9.70;3.70;;;30.90;51.10;;;;;;4999168;28;20086;-85
2021/07/01 10:00:36;;;;;;;5.03;3.80;;;30.90;53.00;;;;;;4994353;28;20038;-85
2021/07/01 10:03:11;;;;;;;2.88;2.53;;;;;;;;;;4996051;28;20022;-83
2021/07/01 10:05:38;;;;;;;4.00;2.63;;;35.00;46.40;;;;;;4994607;28;20104;-84
2021/07/01 10:08:05;;;;;;;6.00;3.70;;;36.40;43.40;;;;;;4998733;28;20045;-84
2021/07/01 10:10:49;;;;;;;6.05;3.25;;;36.10;43.00;;;;;;4995114;28;20105;-82
2021/07/01 10:13:15;;;;;;;4.78;3.47;;;35.60;43.40;;;;;;4992254;28;20057;-85
2021/07/01 10:15:43;;;;;;;4.18;3.22;;;33.90;44.50;;;;;;5001487;28;20368;-81
2021/07/01 10:18:12;;;;;;;4.80;3.60;;;32.60;47.00;;;;;;4995332;28;20475;-83
2021/07/01 10:20:47;;;;;;;6.32;3.63;;;31.60;49.10;;;;;;4994794;28;20093;-84
2021/07/01 10:23:19;;;;;;;3.83;3.42;;;31.00;51.80;;;;;;4994837;28;20105;-82
2021/07/01 10:25:53;;;;;;;7.03;3.85;;;32.40;49.60;;;;;;4994088;28;20022;-80
2021/07/01 10:28:21;;;;;;;3.97;3.58;;;33.30;47.30;;;;;;4994448;28;20022;-80
2021/07/01 10:31:05;;;;;;;4.28;3.65;;;33.40;46.90;;;;;;4994225;28;20025;-84
2021/07/01 10:33:34;;;;;;;3.80;3.50;;;32.80;47.50;;;;;;4994350;28;20022;-82
2021/07/01 10:36:03;;;;;;;5.38;3.70;;;31.80;49.00;;;;;;4994775;28;20026;-82
2021/07/01 10:38:50;;;;;;;5.95;3.72;;;30.90;50.70;;;;;;4992005;28;20038;-80
2021/07/01 10:41:34;;;;;;;6.18;3.78;;;29.50;52.60;;;;;;4994106;28;20027;-82
2021/07/01 10:44:02;;;;;;;3.80;3.47;;;28.60;55.10;;;;;;4990028;28;20026;-80
2021/07/01 10:46:45;;;;;;;5.07;3.15;;;28.10;56.80;;;;;;4992319;28;20034;-82
2021/07/01 10:49:12;;;;;;;7.15;3.65;;;27.60;57.00;;;;;;4989856;28;20384;-81
2021/07/01 10:51:51;;;;;;;9.35;5.75;;;27.20;59.00;;;;;;4985923;28;20535;-79
2021/07/01 10:54:17;;;;;;;5.50;4.97;;;26.60;61.20;;;;;;4993733;28;20038;-83
2021/07/01 10:56:45;;;;;;;4.28;2.95;;;26.30;61.60;;;;;;4999863;28;20022;-82
2021/07/01 10:59:12;;;;;;;5.43;3.15;;;26.20;62.20;;;;;;4995630;28;20054;-80
2021/07/01 11:01:44;;;;;;;4.10;2.40;;;26.10;63.20;;;;;;5002682;28;20459;-81
2021/07/01 11:04:11;;;;;;;2.50;2.30;;;26.20;62.40;;;;;;4993696;28;20521;-81
2021/07/01 11:06:39;;;;;;;4.20;2.78;;;26.40;62.10;;;;;;4993822;28;20033;-84
2021/07/01 11:09:08;;;;;;;5.50;3.65;;;26.40;61.40;;;;;;4993624;28;20018;-83
2021/07/01 11:11:39;;;;;;;2.75;2.40;;;26.40;61.20;;;;;;4993800;28;20116;-82
2021/07/01 11:14:10;;;;;;;2.55;2.28;;;26.40;60.80;;;;;;4997476;28;20018;-82
2021/07/01 11:16:39;;;;;;;3.83;2.83;;;26.40;60.80;;;;;;4993736;28;20022;-80
2021/07/01 11:19:21;;;;;;;3.97;2.58;;;26.50;61.20;;;;;;4993571;28;20038;-81
2021/07/01 11:21:53;;;;;;;4.95;3.45;;;26.70;61.50;;;;;;4993517;28;20030;-81
2021/07/01 11:24:22;;;;;;;3.28;2.80;;;26.80;61.80;;;;;;4993446;28;20014;-81
2021/07/01 11:26:54;;;;;;;3.40;2.78;;;26.80;61.40;;;;;;4992025;28;20022;-81
2021/07/01 11:29:41;;;;;;;3.13;2.45;;;26.80;60.30;;;;;;4993288;28;20045;-80
2021/07/01 11:32:21;;;;;;;3.15;2.10;;;26.70;60.10;;;;;;4995561;28;20571;-80
2021/07/01 11:34:52;;;;;;;5.68;2.60;;;26.40;60.20;;;;;;4993238;28;20038;-81
2021/07/01 11:37:32;;;;;;;3.53;2.67;;;26.40;61.70;;;;;;4992881;28;20373;-79
2021/07/01 11:40:10;;;;;;;3.95;2.63;;;26.60;61.50;;;;;;4993200;28;20686;-81
2021/07/01 11:42:37;;;;;;;5.10;2.40;;;26.90;61.40;;;;;;4993826;28;20023;-79
2021/07/01 11:45:03;;;;;;;7.37;3.10;;;27.20;60.60;;;;;;4995850;28;20030;-79
2021/07/01 11:47:32;;;;;;;3.65;2.47;;;27.40;60.10;;;;;;4992988;28;20105;-78
2021/07/01 11:50:00;;;;;;;6.97;2.50;;;27.50;59.20;;;;;;4992196;28;20452;-79
2021/07/01 11:52:31;;;;;;;3.25;2.10;;;27.50;58.10;;;;;;4993170;28;20014;-79
2021/07/01 11:54:58;;;;;;;3.85;2.00;;;27.40;56.70;;;;;;4993026;28;20430;-81
2021/07/01 11:57:30;;;;;;;3.67;2.42;;;27.30;57.50;;;;;;4990962;28;20396;-82
2021/07/01 11:59:57;;;;;;;2.63;2.00;;;27.30;58.30;;;;;;4992824;28;20057;-80
2021/07/01 12:02:24;;;;;;;3.80;2.20;;;27.30;56.50;;;;;;4993042;28;20022;-80
2021/07/01 12:04:50;;;;;;;3.60;2.03;;;27.20;57.10;;;;;;4992835;28;20030;-80
2021/07/01 12:07:25;;;;;;;3.17;2.08;;;27.10;56.90;;;;;;4992891;28;20035;-79
2021/07/01 12:09:54;;;;;;;2.67;2.10;;;27.10;57.10;;;;;;4988472;28;20034;-80
2021/07/01 12:12:27;;;;;;;5.45;2.25;;;27.00;58.00;;;;;;4992648;28;20034;-80
2021/07/01 12:15:10;;;;;;;4.55;1.88;;;27.10;57.50;;;;;;4992836;28;20018;-80
2021/07/01 12:18:02;;;;;;;3.45;2.45;;;27.10;56.60;;;;;;4992600;28;20041;-82
2021/07/01 12:20:31;;;;;;;5.70;1.83;;;27.10;57.10;;;;;;4985212;28;20369;-80
2021/07/01 12:22:58;;;;;;;4.00;2.35;;;27.00;57.30;;;;;;4993068;28;20027;-81
2021/07/01 12:25:27;;;;;;;2.35;1.83;;;27.00;57.20;;;;;;4995917;28;20027;-83
2021/07/01 12:28:07;;;;;;;4.22;1.98;;;27.00;57.50;;;;;;4996710;28;20404;-82
2021/07/01 12:30:55;;;;;;;3.83;2.13;;;26.70;58.20;;;;;;4996608;28;20025;-80
2021/07/01 12:33:53;;;;;;;2.80;2.15;;;26.40;58.70;;;;;;4996705;28;20018;-80
2021/07/01 12:36:23;;;;;;;3.33;1.70;;;26.20;59.20;;;;;;4996832;28;20041;-79
2021/07/01 12:39:07;;;;;;;4.70;2.22;;;26.10;59.40;;;;;;4996097;28;20062;-78
2021/07/01 12:41:39;;;;;;;3.10;2.30;;;25.90;60.50;;;;;;4995979;28;20032;-81
2021/07/01 12:44:07;;;;;;;2.40;1.80;;;25.70;61.90;;;;;;4996585;28;20503;-80
2021/07/01 12:46:55;;;;;;;3.20;2.10;;;25.70;62.20;;;;;;4996310;28;20110;-81
2021/07/01 12:49:22;;;;;;;3.00;2.00;;;25.70;61.70;;;;;;4984699;28;20377;-81
2021/07/01 12:51:56;;;;;;;3.17;2.05;;;25.80;61.90;;;;;;4984433;28;20460;-82
2021/07/01 12:54:25;;;;;;;3.13;2.10;;;25.90;61.90;;;;;;4983296;28;20030;-83